createdAt,value
2022-10-19T00:02:19.850Z,98481.09
2022-10-19T00:04:46.441Z,98466.34
2022-10-19T00:07:13.064Z,98468.28
2022-10-19T00:09:39.847Z,98487.59
2022-10-19T00:12:06.394Z,98491.25
2022-10-19T00:14:33.045Z,98477.03
2022-10-19T00:16:59.597Z,98478.38
2022-10-19T00:19:27.714Z,98475.13
2022-10-19T00:21:54.623Z,98475.72
2022-10-19T00:24:21.574Z,98471.75
2022-10-19T00:26:48.257Z,98476.59
2022-10-19T00:29:15.446Z,98458.63
2022-10-19T00:31:42.587Z,98455.56
2022-10-19T00:34:09.712Z,98432.88
2022-10-19T00:36:39.449Z,98429.81
2022-10-19T00:39:08.657Z,98455.41
2022-10-19T00:41:36.526Z,98463.19
2022-10-19T00:44:13.820Z,98466.81
2022-10-19T00:46:42.986Z,98462.59
2022-10-19T00:49:15.817Z,98448.44
2022-10-19T00:51:45.205Z,98452.91
2022-10-19T00:54:12.322Z,98427.91
2022-10-19T00:56:42.211Z,98433.72
2022-10-19T00:59:10.330Z,98429.75
2022-10-19T01:01:37.236Z,98447.25
2022-10-19T01:04:04.918Z,98453.41
2022-10-19T01:06:32.165Z,98454.66
2022-10-19T01:08:58.827Z,98453.59
2022-10-19T01:11:31.493Z,98452.09
2022-10-19T01:14:22.862Z,98457.22
2022-10-19T01:16:58.061Z,98457.19
2022-10-19T01:19:50.509Z,98452.66
2022-10-19T01:22:46.253Z,98453.56
2022-10-19T01:25:18.560Z,98459.28
2022-10-19T01:28:09.086Z,98457.50
2022-10-19T01:30:54.507Z,98454.09
2022-10-19T01:33:46.009Z,98449.53
2022-10-19T01:36:31.180Z,98443.53
2022-10-19T01:39:19.119Z,98445.13
2022-10-19T01:41:54.869Z,98445.34
2022-10-19T01:45:00.744Z,98447.19
2022-10-19T01:47:34.207Z,98447.84
2022-10-19T01:50:14.782Z,98439.25
2022-10-19T01:52:43.058Z,98433.16
2022-10-19T01:55:13.445Z,98432.28
2022-10-19T01:57:45.902Z,98433.66
2022-10-19T02:00:15.903Z,98435.22
2022-10-19T02:02:46.743Z,98433.66
2022-10-19T02:05:14.202Z,98429.53
2022-10-19T02:07:44.535Z,98426.50
2022-10-19T02:10:11.253Z,98416.13
2022-10-19T02:12:38.333Z,98414.09
2022-10-19T02:15:11.161Z,98390.44
2022-10-19T02:17:44.093Z,98409.91
2022-10-19T02:20:10.736Z,98415.41
2022-10-19T02:22:37.485Z,98409.22
2022-10-19T02:25:05.013Z,98403.06
2022-10-19T02:27:31.596Z,98401.97
2022-10-19T02:29:58.174Z,98390.25
2022-10-19T02:32:25.968Z,98396.81
2022-10-19T02:34:52.812Z,98377.16
2022-10-19T02:37:22.057Z,98379.19
2022-10-19T02:39:50.024Z,98362.53
2022-10-19T02:42:22.604Z,98385.22
2022-10-19T02:44:58.682Z,98376.19
2022-10-19T02:47:31.173Z,98373.06
2022-10-19T02:49:57.835Z,98355.41
2022-10-19T02:52:24.346Z,98354.91
2022-10-19T02:54:50.861Z,98356.28
2022-10-19T02:57:23.920Z,98344.16
2022-10-19T02:59:51.430Z,98361.13
2022-10-19T03:02:19.599Z,98360.31
2022-10-19T03:07:15.999Z,98358.47
2022-10-19T03:09:43.661Z,98327.75
2022-10-19T03:12:11.601Z,98329.97
2022-10-19T03:14:38.174Z,98350.94
2022-10-19T03:17:05.315Z,98318.66
2022-10-19T03:19:32.315Z,98343.25
2022-10-19T03:21:58.851Z,98337.22
2022-10-19T03:24:25.702Z,98316.56
2022-10-19T03:26:52.329Z,98341.38
2022-10-19T03:29:19.036Z,98335.25
2022-10-19T03:31:45.635Z,98335.41
2022-10-19T03:34:12.165Z,98323.88
2022-10-19T03:36:40.740Z,98336.50
2022-10-19T03:39:11.476Z,98303.22
2022-10-19T03:41:38.689Z,98316.25
2022-10-19T03:44:07.385Z,98326.75
2022-10-19T03:46:35.528Z,98302.69
2022-10-19T03:49:02.407Z,98332.41
2022-10-19T03:51:30.909Z,98330.00
2022-10-19T03:54:00.085Z,98310.91
2022-10-19T03:56:28.765Z,98325.88
2022-10-19T03:58:56.869Z,98325.50
2022-10-19T04:01:32.442Z,98305.09
2022-10-19T04:04:01.344Z,98315.50
2022-10-19T04:06:30.780Z,98316.03
2022-10-19T04:08:57.907Z,98280.66
2022-10-19T04:11:26.463Z,98282.28
2022-10-19T04:13:54.517Z,98288.47
2022-10-19T04:16:22.840Z,98295.59
2022-10-19T04:18:49.505Z,98278.50
2022-10-19T04:21:24.977Z,98281.50
2022-10-19T04:23:53.327Z,98301.88
2022-10-19T04:26:20.732Z,98284.63
2022-10-19T04:28:47.421Z,98275.78
2022-10-19T04:31:14.163Z,98293.81
2022-10-19T04:33:41.823Z,98306.94
2022-10-19T04:36:10.802Z,98296.59
2022-10-19T04:38:37.864Z,98296.59
2022-10-19T04:41:12.622Z,98305.75
2022-10-19T04:43:39.590Z,98306.94
2022-10-19T04:46:14.100Z,98282.13
2022-10-19T04:48:41.522Z,98294.72
2022-10-19T04:51:08.878Z,98301.50
2022-10-19T04:53:38.084Z,98291.41
2022-10-19T04:56:09.998Z,98275.56
2022-10-19T04:58:36.538Z,98290.19
2022-10-19T05:01:18.096Z,98287.84
2022-10-19T05:03:45.345Z,98300.34
2022-10-19T05:06:13.121Z,98286.91
2022-10-19T05:08:40.140Z,98287.00
2022-10-19T05:11:14.712Z,98282.31
2022-10-19T05:13:42.507Z,98231.47
2022-10-19T05:16:12.567Z,98275.59
2022-10-19T05:18:39.485Z,98269.63
2022-10-19T05:21:11.755Z,98247.72
2022-10-19T05:23:39.432Z,98249.38
2022-10-19T05:26:08.743Z,98276.50
2022-10-19T05:28:36.519Z,98286.09
2022-10-19T05:31:14.755Z,98291.22
2022-10-19T05:33:42.276Z,98265.56
2022-10-19T05:36:25.571Z,98264.91
2022-10-19T05:38:53.220Z,98256.91
2022-10-19T05:41:20.542Z,98264.75
2022-10-19T05:43:53.698Z,98263.94
2022-10-19T05:46:20.273Z,98276.44
2022-10-19T05:48:47.629Z,98278.84
2022-10-19T05:51:17.701Z,98262.84
2022-10-19T05:53:44.614Z,98272.28
2022-10-19T05:56:20.116Z,98258.91
2022-10-19T05:58:47.320Z,98253.75
2022-10-19T06:01:15.490Z,98255.56
2022-10-19T06:03:42.094Z,98252.44
2022-10-19T06:06:09.581Z,98247.75
2022-10-19T06:08:37.235Z,98242.69
2022-10-19T06:11:18.481Z,98229.97
2022-10-19T06:13:46.795Z,98253.03
2022-10-19T06:16:18.247Z,98255.31
2022-10-19T06:18:44.975Z,98259.81
2022-10-19T06:21:14.781Z,98253.84
2022-10-19T06:26:11.859Z,98249.38
2022-10-19T06:28:40.206Z,98253.81
2022-10-19T06:31:09.258Z,98223.84
2022-10-19T06:33:40.470Z,98234.84
2022-10-19T06:36:16.350Z,98237.78
2022-10-19T06:38:43.203Z,98230.97
2022-10-19T06:41:11.711Z,98208.53
2022-10-19T06:43:38.877Z,98228.00
2022-10-19T06:46:07.732Z,98210.66
2022-10-19T06:48:34.736Z,98241.94
2022-10-19T06:51:06.291Z,98230.44
2022-10-19T06:53:34.461Z,98232.00
2022-10-19T06:56:03.252Z,98223.94
2022-10-19T06:58:30.841Z,98246.78
2022-10-19T07:01:01.493Z,98241.50
2022-10-19T07:03:29.897Z,98250.16
2022-10-19T07:06:01.455Z,98240.06
2022-10-19T07:08:30.026Z,98241.81
2022-10-19T07:10:59.359Z,98231.06
2022-10-19T07:13:27.754Z,98231.50
2022-10-19T07:16:17.983Z,98229.44
2022-10-19T07:18:50.267Z,98214.22
2022-10-19T07:21:17.887Z,98232.72
2022-10-19T07:23:47.476Z,98218.16
2022-10-19T07:26:15.515Z,98234.44
2022-10-19T07:28:46.829Z,98229.56
2022-10-19T07:31:17.988Z,98224.81
2022-10-19T07:33:45.022Z,98228.53
2022-10-19T07:36:13.613Z,98222.56
2022-10-19T07:38:40.724Z,98196.25
2022-10-19T07:41:12.696Z,98217.91
2022-10-19T07:43:40.278Z,98224.25
2022-10-19T07:46:11.134Z,98208.91
2022-10-19T07:48:37.682Z,98200.75
2022-10-19T07:51:06.548Z,98213.69
2022-10-19T07:53:36.744Z,98201.28
2022-10-19T07:56:09.115Z,98205.53
2022-10-19T07:58:36.647Z,98189.66
2022-10-19T08:01:06.299Z,98209.88
2022-10-19T08:06:21.198Z,98211.81
2022-10-19T08:08:49.022Z,98218.63
2022-10-19T08:11:20.983Z,98216.53
2022-10-19T08:13:48.446Z,98205.25
2022-10-19T08:16:28.381Z,98211.13
2022-10-19T08:19:00.603Z,98202.44
2022-10-19T08:21:28.437Z,98201.75
2022-10-19T08:23:55.304Z,98200.78
2022-10-19T08:26:22.035Z,98202.56
2022-10-19T08:28:48.762Z,98208.47
2022-10-19T08:31:21.974Z,98202.03
2022-10-19T08:33:51.948Z,98200.06
2022-10-19T08:36:19.970Z,98197.00
2022-10-19T08:38:48.451Z,98197.63
2022-10-19T08:41:34.015Z,98203.94
2022-10-19T08:44:12.795Z,98203.22
2022-10-19T08:46:54.565Z,98196.84
2022-10-19T08:49:25.953Z,98189.16
2022-10-19T08:51:59.409Z,98186.13
2022-10-19T08:54:37.839Z,98180.00
2022-10-19T08:57:25.089Z,98174.41
2022-10-19T09:00:10.812Z,98182.75
2022-10-19T09:03:13.453Z,98181.47
2022-10-19T09:06:20.012Z,98181.66
2022-10-19T09:08:47.546Z,98181.53
2022-10-19T09:11:17.481Z,98176.81
2022-10-19T09:14:04.305Z,98177.47
2022-10-19T09:16:33.063Z,98170.72
2022-10-19T09:18:59.905Z,98177.69
2022-10-19T09:21:46.316Z,98179.63
2022-10-19T09:24:54.488Z,98174.25
2022-10-19T09:27:30.128Z,98181.03
2022-10-19T09:29:58.520Z,98189.13
2022-10-19T09:32:33.938Z,98185.19
2022-10-19T09:35:03.750Z,98180.41
2022-10-19T09:37:34.467Z,98175.81
2022-10-19T09:40:01.213Z,98175.44
2022-10-19T09:42:36.875Z,98177.50
2022-10-19T09:45:17.576Z,98161.63
2022-10-19T09:47:48.245Z,98169.91
2022-10-19T09:50:23.171Z,98162.66
2022-10-19T09:52:53.667Z,98161.69
2022-10-19T09:55:28.458Z,98164.78
2022-10-19T09:58:14.711Z,98170.22
2022-10-19T10:00:47.139Z,98160.03
2022-10-19T10:03:24.382Z,98145.75
2022-10-19T10:05:51.669Z,98148.03
2022-10-19T10:08:21.825Z,98136.56
2022-10-19T10:11:00.897Z,98146.25
2022-10-19T10:13:28.142Z,98139.09
2022-10-19T10:16:01.405Z,98141.47
2022-10-19T10:18:29.604Z,98139.00
2022-10-19T10:21:11.134Z,98123.78
2022-10-19T10:23:38.499Z,98118.56
2022-10-19T10:26:16.233Z,98114.06
2022-10-19T10:28:50.723Z,98123.22
2022-10-19T10:31:29.698Z,98115.69
2022-10-19T10:34:10.913Z,98108.47
2022-10-19T10:36:53.469Z,98115.59
2022-10-19T10:39:20.366Z,98113.22
2022-10-19T10:41:49.017Z,98101.97
2022-10-19T10:44:20.740Z,98095.53
2022-10-19T10:46:55.153Z,98103.03
2022-10-19T10:49:28.327Z,98100.31
2022-10-19T10:52:00.932Z,98082.75
2022-10-19T10:54:32.577Z,98087.31
2022-10-19T10:57:44.469Z,98083.00
2022-10-19T11:00:20.596Z,98074.47
2022-10-19T11:02:58.436Z,98062.59
2022-10-19T11:05:40.046Z,98068.56
2022-10-19T11:08:12.285Z,98057.78
2022-10-19T11:10:49.705Z,98041.03
2022-10-19T11:13:24.125Z,98029.84
2022-10-19T11:16:23.037Z,98034.44
2022-10-19T11:19:46.773Z,98026.19
2022-10-19T11:22:40.825Z,98022.50
2022-10-19T11:25:45.060Z,98027.13
2022-10-19T11:28:49.534Z,98013.91
2022-10-19T11:31:44.618Z,97997.97
2022-10-19T11:34:26.238Z,98007.47
2022-10-19T11:37:07.624Z,97996.06
2022-10-19T11:39:41.976Z,97991.56
2022-10-19T11:42:26.608Z,97992.69
2022-10-19T11:46:00.548Z,97975.22
2022-10-19T11:48:27.139Z,97987.94
2022-10-19T11:51:17.383Z,97988.53
2022-10-19T11:57:53.780Z,97984.28
2022-10-19T12:00:38.226Z,97956.56
2022-10-19T12:03:22.659Z,97973.16
2022-10-19T12:06:06.866Z,97969.69
2022-10-19T12:09:04.168Z,97977.47
2022-10-19T12:11:36.737Z,97971.63
2022-10-19T12:14:06.451Z,97967.78
2022-10-19T12:16:40.383Z,97964.16
2022-10-19T12:19:16.329Z,97938.31
2022-10-19T12:21:44.133Z,97954.22
2022-10-19T12:24:15.891Z,97944.25
2022-10-19T12:26:44.844Z,97939.16
2022-10-19T12:29:25.348Z,97945.22
2022-10-19T12:31:53.892Z,97927.66
2022-10-19T12:34:48.375Z,97935.03
2022-10-19T12:37:23.796Z,97916.59
2022-10-19T12:39:50.272Z,97921.50
2022-10-19T12:42:35.337Z,97914.56
2022-10-19T12:45:25.124Z,97910.69
2022-10-19T12:48:12.530Z,97906.16
2022-10-19T12:50:52.619Z,97902.41
2022-10-19T12:53:31.273Z,97902.69
2022-10-19T12:56:06.241Z,97892.03
2022-10-19T12:58:46.576Z,97889.06
2022-10-19T13:01:21.883Z,97883.94
2022-10-19T13:03:53.407Z,97878.25
2022-10-19T13:06:44.988Z,97871.06
2022-10-19T13:09:27.378Z,97872.47
2022-10-19T13:12:25.665Z,97871.66
2022-10-19T13:14:58.861Z,97855.91
2022-10-19T13:17:40.813Z,97862.72
2022-10-19T13:20:13.718Z,97860.84
2022-10-19T13:22:42.068Z,97838.81
2022-10-19T13:25:23.810Z,97845.91
2022-10-19T13:27:52.085Z,97830.16
2022-10-19T13:30:40.827Z,97843.41
2022-10-19T13:33:25.412Z,97835.75
2022-10-19T13:36:08.263Z,97819.97
2022-10-19T13:38:38.968Z,97827.81
2022-10-19T13:41:14.950Z,97827.16
2022-10-19T13:43:44.162Z,97821.16
2022-10-19T13:46:13.934Z,97816.88
2022-10-19T13:49:02.460Z,97812.59
2022-10-19T13:51:36.112Z,97812.41
2022-10-19T13:54:27.317Z,97800.84
2022-10-19T13:57:09.117Z,97807.25
2022-10-19T14:00:03.454Z,97794.47
2022-10-19T14:02:51.048Z,97798.22
2022-10-19T14:05:20.296Z,97798.69
2022-10-19T14:07:55.607Z,97787.06
2022-10-19T14:10:28.302Z,97791.84
2022-10-19T14:13:03.563Z,97793.97
2022-10-19T14:15:35.508Z,97788.97
2022-10-19T14:18:03.832Z,97775.75
2022-10-19T14:20:39.057Z,97777.56
2022-10-19T14:23:34.372Z,97777.34
2022-10-19T14:26:13.765Z,97784.06
2022-10-19T14:28:42.985Z,97778.16
2022-10-19T14:31:19.320Z,97787.00
2022-10-19T14:33:48.216Z,97784.84
2022-10-19T14:36:17.848Z,97789.75
2022-10-19T14:38:49.836Z,97789.66
2022-10-19T14:41:31.575Z,97787.25
2022-10-19T14:44:02.765Z,97788.47
2022-10-19T14:46:34.759Z,97786.59
2022-10-19T14:49:04.550Z,97779.88
2022-10-19T14:51:46.448Z,97763.19
2022-10-19T14:54:37.984Z,97763.97
2022-10-19T14:57:15.763Z,97770.41
2022-10-19T14:59:54.286Z,97782.63
2022-10-19T15:02:42.921Z,97759.31
2022-10-19T15:05:22.048Z,97754.16
2022-10-19T15:07:49.742Z,97745.50
2022-10-19T15:10:40.981Z,97744.63
2022-10-19T15:13:16.480Z,97752.78
2022-10-19T15:15:43.235Z,97762.50
2022-10-19T15:18:36.726Z,97760.59
2022-10-19T15:21:23.497Z,97755.44
2022-10-19T15:23:52.276Z,97755.16
2022-10-19T15:26:27.463Z,97751.63
2022-10-19T15:29:06.846Z,97760.00
2022-10-19T15:31:33.494Z,97752.06
2022-10-19T15:34:03.916Z,97745.22
2022-10-19T15:36:33.660Z,97759.88
2022-10-19T15:39:18.438Z,97767.44
2022-10-19T15:41:52.489Z,97763.34
2022-10-19T15:44:33.889Z,97766.84
2022-10-19T15:47:24.076Z,97765.41
2022-10-19T15:49:55.683Z,97766.19
2022-10-19T15:52:23.421Z,97769.19
2022-10-19T15:54:52.361Z,97747.69
2022-10-19T15:57:31.363Z,97757.38
2022-10-19T16:00:02.112Z,97760.03
2022-10-19T16:02:30.841Z,97749.91
2022-10-19T16:04:57.479Z,97752.03
2022-10-19T16:07:35.902Z,97750.28
2022-10-19T16:10:02.957Z,97741.72
2022-10-19T16:12:32.770Z,97750.03
2022-10-19T16:15:01.634Z,97740.81
2022-10-19T16:17:28.268Z,97708.94
2022-10-19T16:19:54.812Z,97738.47
2022-10-19T16:22:21.358Z,97739.50
2022-10-19T16:24:47.880Z,97737.47
2022-10-19T16:27:16.497Z,97732.13
2022-10-19T16:29:45.408Z,97734.50
2022-10-19T16:32:12.018Z,97720.09
2022-10-19T16:34:38.818Z,97727.34
2022-10-19T16:37:07.088Z,97730.25
2022-10-19T16:39:34.553Z,97735.75
2022-10-19T16:42:02.042Z,97733.16
2022-10-19T16:44:30.955Z,97745.06
2022-10-19T16:47:01.095Z,97735.84
2022-10-19T16:49:27.709Z,97746.81
2022-10-19T16:51:57.256Z,97743.88
2022-10-19T16:54:33.895Z,97755.63
2022-10-19T16:57:08.746Z,97738.41
2022-10-19T16:59:36.252Z,97747.06
2022-10-19T17:02:02.764Z,97739.00
2022-10-19T17:04:33.261Z,97747.81
2022-10-19T17:07:03.323Z,97758.34
2022-10-19T17:09:52.309Z,97762.59
2022-10-19T17:12:19.296Z,97759.00
2022-10-19T17:14:45.830Z,97765.69
2022-10-19T17:17:12.893Z,97762.38
2022-10-19T17:19:39.598Z,97772.75
2022-10-19T17:22:06.269Z,97764.44
2022-10-19T17:24:33.070Z,97754.31
2022-10-19T17:27:08.287Z,97766.47
2022-10-19T17:29:34.841Z,97763.09
2022-10-19T17:32:01.388Z,97771.41
2022-10-19T17:34:28.170Z,97774.56
2022-10-19T17:36:54.965Z,97758.22
2022-10-19T17:39:25.846Z,97778.22
2022-10-19T17:42:01.435Z,97771.19
2022-10-19T17:44:30.429Z,97764.22
2022-10-19T17:46:57.096Z,97798.47
2022-10-19T17:49:23.646Z,97789.50
2022-10-19T17:51:52.601Z,97791.84
2022-10-19T17:54:19.344Z,97777.09
2022-10-19T17:56:46.166Z,97782.31
2022-10-19T17:59:13.427Z,97803.94
2022-10-19T18:01:40.052Z,97805.09
2022-10-19T18:04:06.863Z,97801.13
2022-10-19T18:06:36.253Z,97779.69
2022-10-19T18:09:08.661Z,97810.47
2022-10-19T18:11:45.047Z,97782.06
2022-10-19T18:14:12.710Z,97794.00
2022-10-19T18:16:46.559Z,97797.16
2022-10-19T18:19:14.927Z,97823.53
2022-10-19T18:21:43.827Z,97810.56
2022-10-19T18:24:20.315Z,97821.94
2022-10-19T18:26:48.988Z,97824.16
2022-10-19T18:29:24.354Z,97824.03
2022-10-19T18:31:53.843Z,97809.31
2022-10-19T18:34:26.026Z,97819.03
2022-10-19T18:36:53.026Z,97827.44
2022-10-19T18:39:19.973Z,97821.81
2022-10-19T18:41:48.264Z,97828.59
2022-10-19T18:44:14.894Z,97816.78
2022-10-19T18:46:41.656Z,97836.22
2022-10-19T18:49:09.107Z,97818.34
2022-10-19T18:51:36.578Z,97819.47
2022-10-19T18:54:05.886Z,97822.53
2022-10-19T18:56:41.579Z,97812.81
2022-10-19T18:59:08.235Z,97825.34
2022-10-19T19:01:38.741Z,97793.66
2022-10-19T19:04:10.117Z,97803.81
2022-10-19T19:06:39.978Z,97816.91
2022-10-19T19:09:10.133Z,97815.75
2022-10-19T19:11:41.257Z,97821.72
2022-10-19T19:14:16.617Z,97828.03
2022-10-19T19:16:44.735Z,97828.84
2022-10-19T19:19:13.292Z,97828.25
2022-10-19T19:21:43.911Z,97828.63
2022-10-19T19:24:19.718Z,97797.28
2022-10-19T19:26:50.553Z,97798.78
2022-10-19T19:29:19.098Z,97811.53
2022-10-19T19:31:47.418Z,97818.44
2022-10-19T19:34:14.441Z,97821.47
2022-10-19T19:36:47.120Z,97811.53
2022-10-19T19:39:19.468Z,97794.56
2022-10-19T19:41:47.037Z,97764.88
2022-10-19T19:44:13.642Z,97789.78
2022-10-19T19:46:40.258Z,97806.59
2022-10-19T19:49:09.778Z,97808.03
2022-10-19T19:51:39.621Z,97801.00
2022-10-19T19:54:08.458Z,97764.97
2022-10-19T19:56:40.043Z,97818.91
2022-10-19T19:59:09.126Z,97789.31
2022-10-19T20:01:38.648Z,97803.81
2022-10-19T20:04:08.874Z,97772.69
2022-10-19T20:06:40.399Z,97781.25
2022-10-19T20:09:10.898Z,97800.75
2022-10-19T20:11:42.688Z,97785.22
2022-10-19T20:14:09.829Z,97771.16
2022-10-19T20:16:40.709Z,97768.88
2022-10-19T20:19:12.782Z,97785.69
2022-10-19T20:21:42.848Z,97791.78
2022-10-19T20:24:09.707Z,97765.69
2022-10-19T20:26:39.496Z,97786.47
2022-10-19T20:29:08.867Z,97773.41
2022-10-19T20:31:39.615Z,97773.66
2022-10-19T20:34:12.327Z,97790.59
2022-10-19T20:36:41.708Z,97772.28
2022-10-19T20:39:09.744Z,97734.63
2022-10-19T20:41:38.501Z,97774.91
2022-10-19T20:44:05.193Z,97766.47
2022-10-19T20:46:32.066Z,97735.44
2022-10-19T20:49:00.922Z,97737.59
2022-10-19T20:51:44.808Z,97713.38
2022-10-19T20:54:13.138Z,97740.53
2022-10-19T20:56:50.791Z,97740.50
2022-10-19T20:59:22.471Z,97756.25
2022-10-19T21:01:51.132Z,97754.81
2022-10-19T21:04:17.966Z,97728.84
2022-10-19T21:06:47.471Z,97743.91
2022-10-19T21:09:16.418Z,97753.38
2022-10-19T21:11:44.736Z,97746.75
2022-10-19T21:14:25.464Z,97748.91
2022-10-19T21:16:56.716Z,97746.41
2022-10-19T21:19:25.819Z,97707.59
2022-10-19T21:21:57.906Z,97724.81
2022-10-19T21:24:28.115Z,97720.38
2022-10-19T21:26:54.923Z,97741.63
2022-10-19T21:29:21.967Z,97740.69
2022-10-19T21:31:51.840Z,97729.91
2022-10-19T21:34:21.798Z,97739.88
2022-10-19T21:36:48.820Z,97722.94
2022-10-19T21:39:15.930Z,97730.00
2022-10-19T21:41:44.185Z,97740.53
2022-10-19T21:44:14.545Z,97725.59
2022-10-19T21:46:46.836Z,97712.94
2022-10-19T21:49:13.716Z,97727.59
2022-10-19T21:51:50.812Z,97737.16
2022-10-19T21:54:24.964Z,97738.22
2022-10-19T21:56:53.197Z,97724.28
2022-10-19T21:59:19.902Z,97700.00
2022-10-19T22:01:46.575Z,97729.59
2022-10-19T22:04:15.891Z,97729.59
2022-10-19T22:06:43.285Z,97702.81
2022-10-19T22:09:13.817Z,97730.41
2022-10-19T22:11:43.337Z,97716.72
2022-10-19T22:14:14.004Z,97726.97
2022-10-19T22:16:43.707Z,97681.78
2022-10-19T22:19:10.684Z,97708.78
2022-10-19T22:24:13.495Z,97709.69
2022-10-19T22:26:43.895Z,97710.09
2022-10-19T22:29:10.895Z,97710.81
2022-10-19T22:31:37.676Z,97709.25
2022-10-19T22:34:06.209Z,97701.91
2022-10-19T22:36:32.743Z,97684.13
2022-10-19T22:38:59.459Z,97690.78
2022-10-19T22:41:25.974Z,97717.13
2022-10-19T22:43:52.484Z,97704.00
2022-10-19T22:46:19.021Z,97694.81
2022-10-19T22:48:45.577Z,97704.06
2022-10-19T22:51:12.177Z,97698.06
2022-10-19T22:53:38.736Z,97716.72
2022-10-19T22:56:05.623Z,97703.66
2022-10-19T22:58:32.245Z,97692.38
2022-10-19T23:01:10.941Z,97699.44
2022-10-19T23:03:40.241Z,97711.81
2022-10-19T23:06:08.415Z,97701.94
2022-10-19T23:08:35.226Z,97703.13
2022-10-19T23:11:01.811Z,97693.38
2022-10-19T23:13:28.650Z,97704.81
2022-10-19T23:15:55.243Z,97693.72
2022-10-19T23:18:21.810Z,97681.38
2022-10-19T23:21:00.104Z,97701.00
2022-10-19T23:23:27.674Z,97710.94
2022-10-19T23:26:18.805Z,97716.31
2022-10-19T23:28:47.708Z,97730.72
2022-10-19T23:31:18.427Z,97711.66
2022-10-19T23:33:45.784Z,97708.25
2022-10-19T23:36:18.107Z,97698.75
2022-10-19T23:38:48.561Z,97745.75
2022-10-19T23:41:18.809Z,97749.66
2022-10-19T23:43:45.811Z,97725.31
2022-10-19T23:46:12.733Z,97704.28
2022-10-19T23:48:39.752Z,97706.47
2022-10-19T23:51:11.842Z,97737.84
2022-10-19T23:53:41.469Z,97750.81
2022-10-19T23:56:11.974Z,97747.06
2022-10-19T23:58:38.523Z,97742.41
